sensor_id;sensor_type;location;lat;lon;timestamp;P1;durP1;ratioP1;P2;durP2;ratioP2
10491;SDS011;5293;51.464;-2.566;2022-08-05T00:02:08;0.67;;;0.67;;
10491;SDS011;5293;51.464;-2.566;2022-08-05T00:04:34;0.87;;;0.87;;
10491;SDS011;5293;51.464;-2.566;2022-08-05T00:07:00;3.40;;;1.27;;
10491;SDS011;5293;51.464;-2.566;2022-08-05T00:09:26;1.70;;;0.83;;
10491;SDS011;5293;51.464;-2.566;2022-08-05T00:11:52;1.97;;;1.00;;
10491;SDS011;5293;51.464;-2.566;2022-08-05T00:14:18;1.33;;;0.80;;
10491;SDS011;5293;51.464;-2.566;2022-08-05T00:16:44;5.97;;;1.27;;
10491;SDS011;5293;51.464;-2.566;2022-08-05T00:19:10;2.40;;;0.80;;
10491;SDS011;5293;51.464;-2.566;2022-08-05T00:21:35;3.47;;;0.90;;
10491;SDS011;5293;51.464;-2.566;2022-08-05T00:24:02;1.27;;;0.70;;
10491;SDS011;5293;51.464;-2.566;2022-08-05T00:26:28;3.03;;;1.03;;
10491;SDS011;5293;51.464;-2.566;2022-08-05T00:28:53;0.93;;;0.80;;
10491;SDS011;5293;51.464;-2.566;2022-08-05T00:31:19;2.53;;;0.80;;
10491;SDS011;5293;51.464;-2.566;2022-08-05T00:33:45;3.80;;;0.77;;
10491;SDS011;5293;51.464;-2.566;2022-08-05T00:36:11;2.30;;;1.07;;
10491;SDS011;5293;51.464;-2.566;2022-08-05T00:38:38;1.83;;;0.60;;
10491;SDS011;5293;51.464;-2.566;2022-08-05T00:41:04;1.17;;;0.63;;
10491;SDS011;5293;51.464;-2.566;2022-08-05T00:43:32;1.10;;;0.70;;
10491;SDS011;5293;51.464;-2.566;2022-08-05T00:45:58;2.00;;;0.83;;
10491;SDS011;5293;51.464;-2.566;2022-08-05T00:48:24;1.13;;;0.70;;
10491;SDS011;5293;51.464;-2.566;2022-08-05T00:50:51;0.70;;;0.70;;
10491;SDS011;5293;51.464;-2.566;2022-08-05T00:53:19;2.97;;;0.90;;
10491;SDS011;5293;51.464;-2.566;2022-08-05T00:55:46;3.83;;;0.63;;
10491;SDS011;5293;51.464;-2.566;2022-08-05T00:58:13;2.67;;;0.70;;
10491;SDS011;5293;51.464;-2.566;2022-08-05T01:00:43;5.93;;;1.00;;
10491;SDS011;5293;51.464;-2.566;2022-08-05T01:03:09;1.90;;;0.90;;
10491;SDS011;5293;51.464;-2.566;2022-08-05T01:05:36;3.70;;;1.30;;
10491;SDS011;5293;51.464;-2.566;2022-08-05T01:08:02;1.53;;;0.90;;
10491;SDS011;5293;51.464;-2.566;2022-08-05T01:11:12;2.53;;;0.93;;
10491;SDS011;5293;51.464;-2.566;2022-08-05T01:13:24;3.60;;;0.60;;
10491;SDS011;5293;51.464;-2.566;2022-08-05T01:16:29;1.47;;;0.97;;
10491;SDS011;5293;51.464;-2.566;2022-08-05T01:18:58;3.93;;;1.00;;
10491;SDS011;5293;51.464;-2.566;2022-08-05T01:21:42;1.50;;;0.60;;
10491;SDS011;5293;51.464;-2.566;2022-08-05T01:30:09;3.37;;;1.00;;
10491;SDS011;5293;51.464;-2.566;2022-08-05T01:32:36;1.67;;;0.70;;
10491;SDS011;5293;51.464;-2.566;2022-08-05T01:35:08;1.70;;;0.90;;
10491;SDS011;5293;51.464;-2.566;2022-08-05T01:37:43;2.23;;;0.87;;
10491;SDS011;5293;51.464;-2.566;2022-08-05T01:40:09;1.70;;;0.87;;
10491;SDS011;5293;51.464;-2.566;2022-08-05T01:42:37;1.77;;;0.83;;
10491;SDS011;5293;51.464;-2.566;2022-08-05T01:45:06;3.73;;;1.00;;
10491;SDS011;5293;51.464;-2.566;2022-08-05T01:47:34;1.30;;;0.80;;
10491;SDS011;5293;51.464;-2.566;2022-08-05T01:50:04;1.23;;;0.90;;
10491;SDS011;5293;51.464;-2.566;2022-08-05T01:52:35;1.20;;;0.67;;
10491;SDS011;5293;51.464;-2.566;2022-08-05T01:55:04;1.93;;;0.80;;
10491;SDS011;5293;51.464;-2.566;2022-08-05T01:57:33;3.10;;;0.90;;
10491;SDS011;5293;51.464;-2.566;2022-08-05T02:00:03;1.90;;;1.10;;
10491;SDS011;5293;51.464;-2.566;2022-08-05T02:02:30;1.70;;;0.80;;
10491;SDS011;5293;51.464;-2.566;2022-08-05T02:05:00;2.03;;;0.63;;
10491;SDS011;5293;51.464;-2.566;2022-08-05T02:07:30;0.80;;;0.70;;
10491;SDS011;5293;51.464;-2.566;2022-08-05T02:09:57;2.80;;;0.93;;
10491;SDS011;5293;51.464;-2.566;2022-08-05T02:12:30;2.63;;;0.97;;
10491;SDS011;5293;51.464;-2.566;2022-08-05T02:14:59;1.93;;;0.90;;
10491;SDS011;5293;51.464;-2.566;2022-08-05T02:17:52;3.03;;;1.10;;
10491;SDS011;5293;51.464;-2.566;2022-08-05T02:20:43;0.87;;;0.80;;
10491;SDS011;5293;51.464;-2.566;2022-08-05T02:23:13;1.93;;;0.87;;
10491;SDS011;5293;51.464;-2.566;2022-08-05T02:25:43;0.97;;;0.70;;
10491;SDS011;5293;51.464;-2.566;2022-08-05T02:28:10;2.20;;;0.80;;
10491;SDS011;5293;51.464;-2.566;2022-08-05T02:30:40;2.30;;;0.80;;
10491;SDS011;5293;51.464;-2.566;2022-08-05T02:33:15;3.53;;;0.90;;
10491;SDS011;5293;51.464;-2.566;2022-08-05T02:35:43;1.63;;;1.20;;
10491;SDS011;5293;51.464;-2.566;2022-08-05T02:38:10;1.67;;;0.70;;
10491;SDS011;5293;51.464;-2.566;2022-08-05T02:40:40;2.67;;;1.17;;
10491;SDS011;5293;51.464;-2.566;2022-08-05T02:43:08;2.53;;;0.93;;
10491;SDS011;5293;51.464;-2.566;2022-08-05T02:45:35;3.73;;;0.83;;
10491;SDS011;5293;51.464;-2.566;2022-08-05T02:48:04;2.50;;;0.90;;
10491;SDS011;5293;51.464;-2.566;2022-08-05T02:50:31;3.13;;;0.87;;
10491;SDS011;5293;51.464;-2.566;2022-08-05T02:52:57;1.63;;;0.70;;
10491;SDS011;5293;51.464;-2.566;2022-08-05T02:55:23;2.13;;;0.80;;
10491;SDS011;5293;51.464;-2.566;2022-08-05T02:57:51;1.63;;;0.90;;
10491;SDS011;5293;51.464;-2.566;2022-08-05T03:00:17;1.23;;;0.70;;
10491;SDS011;5293;51.464;-2.566;2022-08-05T03:02:44;1.87;;;1.00;;
10491;SDS011;5293;51.464;-2.566;2022-08-05T03:05:12;0.63;;;0.63;;
10491;SDS011;5293;51.464;-2.566;2022-08-05T03:07:39;4.43;;;1.00;;
10491;SDS011;5293;51.464;-2.566;2022-08-05T03:10:07;3.67;;;0.93;;
10491;SDS011;5293;51.464;-2.566;2022-08-05T03:12:37;1.13;;;0.90;;
10491;SDS011;5293;51.464;-2.566;2022-08-05T03:15:04;1.67;;;0.83;;
10491;SDS011;5293;51.464;-2.566;2022-08-05T03:17:32;2.47;;;0.90;;
10491;SDS011;5293;51.464;-2.566;2022-08-05T03:19:58;2.37;;;1.10;;
10491;SDS011;5293;51.464;-2.566;2022-08-05T03:22:24;1.57;;;0.90;;
10491;SDS011;5293;51.464;-2.566;2022-08-05T03:24:49;5.13;;;1.40;;
10491;SDS011;5293;51.464;-2.566;2022-08-05T03:27:16;2.50;;;0.97;;
10491;SDS011;5293;51.464;-2.566;2022-08-05T03:29:44;5.43;;;0.90;;
10491;SDS011;5293;51.464;-2.566;2022-08-05T03:32:09;1.43;;;0.87;;
10491;SDS011;5293;51.464;-2.566;2022-08-05T03:34:36;0.93;;;0.80;;
10491;SDS011;5293;51.464;-2.566;2022-08-05T03:37:04;2.97;;;1.00;;
10491;SDS011;5293;51.464;-2.566;2022-08-05T03:39:30;3.40;;;1.63;;
10491;SDS011;5293;51.464;-2.566;2022-08-05T03:41:56;3.23;;;0.90;;
10491;SDS011;5293;51.464;-2.566;2022-08-05T03:44:23;3.10;;;0.97;;
10491;SDS011;5293;51.464;-2.566;2022-08-05T03:46:50;0.87;;;0.70;;
10491;SDS011;5293;51.464;-2.566;2022-08-05T03:49:16;2.20;;;0.80;;
10491;SDS011;5293;51.464;-2.566;2022-08-05T03:51:44;1.30;;;0.87;;
10491;SDS011;5293;51.464;-2.566;2022-08-05T03:54:19;2.63;;;1.00;;
10491;SDS011;5293;51.464;-2.566;2022-08-05T03:56:53;2.07;;;1.10;;
10491;SDS011;5293;51.464;-2.566;2022-08-05T03:59:20;1.43;;;0.97;;
10491;SDS011;5293;51.464;-2.566;2022-08-05T04:01:50;2.57;;;0.77;;
10491;SDS011;5293;51.464;-2.566;2022-08-05T04:04:19;2.23;;;1.10;;
10491;SDS011;5293;51.464;-2.566;2022-08-05T04:06:45;2.10;;;1.00;;
10491;SDS011;5293;51.464;-2.566;2022-08-05T04:09:12;4.27;;;1.13;;
10491;SDS011;5293;51.464;-2.566;2022-08-05T04:11:39;2.50;;;0.93;;
10491;SDS011;5293;51.464;-2.566;2022-08-05T04:14:06;1.70;;;0.80;;
10491;SDS011;5293;51.464;-2.566;2022-08-05T04:16:31;1.57;;;1.13;;
10491;SDS011;5293;51.464;-2.566;2022-08-05T04:18:59;4.57;;;1.17;;
10491;SDS011;5293;51.464;-2.566;2022-08-05T04:21:26;4.17;;;1.40;;
10491;SDS011;5293;51.464;-2.566;2022-08-05T04:23:52;4.57;;;1.40;;
10491;SDS011;5293;51.464;-2.566;2022-08-05T04:26:18;4.67;;;1.20;;
10491;SDS011;5293;51.464;-2.566;2022-08-05T04:28:44;3.63;;;1.83;;
10491;SDS011;5293;51.464;-2.566;2022-08-05T04:31:09;2.63;;;1.40;;
10491;SDS011;5293;51.464;-2.566;2022-08-05T04:33:35;2.97;;;1.40;;
10491;SDS011;5293;51.464;-2.566;2022-08-05T04:36:01;9.17;;;1.63;;
10491;SDS011;5293;51.464;-2.566;2022-08-05T04:38:26;3.83;;;1.40;;
10491;SDS011;5293;51.464;-2.566;2022-08-05T04:40:52;8.50;;;1.57;;
10491;SDS011;5293;51.464;-2.566;2022-08-05T04:43:18;5.23;;;1.60;;
10491;SDS011;5293;51.464;-2.566;2022-08-05T04:45:43;1.53;;;1.03;;
10491;SDS011;5293;51.464;-2.566;2022-08-05T04:48:10;1.53;;;1.20;;
10491;SDS011;5293;51.464;-2.566;2022-08-05T04:50:39;1.07;;;1.00;;
10491;SDS011;5293;51.464;-2.566;2022-08-05T04:53:10;4.07;;;1.60;;
10491;SDS011;5293;51.464;-2.566;2022-08-05T04:55:37;2.93;;;1.30;;
10491;SDS011;5293;51.464;-2.566;2022-08-05T04:58:04;3.13;;;1.57;;
10491;SDS011;5293;51.464;-2.566;2022-08-05T05:00:31;3.50;;;1.50;;
10491;SDS011;5293;51.464;-2.566;2022-08-05T05:02:58;4.10;;;1.70;;
10491;SDS011;5293;51.464;-2.566;2022-08-05T05:05:24;5.17;;;1.70;;
10491;SDS011;5293;51.464;-2.566;2022-08-05T05:07:50;3.20;;;2.40;;
10491;SDS011;5293;51.464;-2.566;2022-08-05T05:10:16;7.87;;;2.40;;
10491;SDS011;5293;51.464;-2.566;2022-08-05T05:12:41;3.57;;;2.27;;
10491;SDS011;5293;51.464;-2.566;2022-08-05T05:15:07;3.40;;;2.33;;
10491;SDS011;5293;51.464;-2.566;2022-08-05T05:17:37;2.83;;;1.90;;
10491;SDS011;5293;51.464;-2.566;2022-08-05T05:20:10;3.17;;;1.50;;
10491;SDS011;5293;51.464;-2.566;2022-08-05T05:22:37;2.90;;;1.30;;
10491;SDS011;5293;51.464;-2.566;2022-08-05T05:25:04;4.07;;;1.63;;
10491;SDS011;5293;51.464;-2.566;2022-08-05T05:27:32;2.07;;;1.27;;
10491;SDS011;5293;51.464;-2.566;2022-08-05T05:29:59;3.47;;;1.50;;
10491;SDS011;5293;51.464;-2.566;2022-08-05T05:32:24;4.27;;;1.50;;
10491;SDS011;5293;51.464;-2.566;2022-08-05T05:34:50;2.77;;;1.10;;
10491;SDS011;5293;51.464;-2.566;2022-08-05T05:37:16;4.60;;;1.30;;
10491;SDS011;5293;51.464;-2.566;2022-08-05T05:39:42;5.60;;;1.40;;
10491;SDS011;5293;51.464;-2.566;2022-08-05T05:42:07;5.03;;;1.17;;
10491;SDS011;5293;51.464;-2.566;2022-08-05T05:44:33;2.90;;;1.27;;
10491;SDS011;5293;51.464;-2.566;2022-08-05T05:46:59;1.60;;;1.30;;
10491;SDS011;5293;51.464;-2.566;2022-08-05T05:49:25;4.03;;;1.63;;
10491;SDS011;5293;51.464;-2.566;2022-08-05T05:51:54;3.77;;;1.50;;
10491;SDS011;5293;51.464;-2.566;2022-08-05T05:54:20;4.17;;;1.50;;
10491;SDS011;5293;51.464;-2.566;2022-08-05T05:56:45;2.43;;;1.30;;
10491;SDS011;5293;51.464;-2.566;2022-08-05T05:59:11;3.63;;;1.63;;
10491;SDS011;5293;51.464;-2.566;2022-08-05T06:01:37;4.60;;;1.27;;
10491;SDS011;5293;51.464;-2.566;2022-08-05T06:04:05;2.93;;;1.20;;
10491;SDS011;5293;51.464;-2.566;2022-08-05T06:06:32;2.40;;;1.30;;
10491;SDS011;5293;51.464;-2.566;2022-08-05T06:08:57;2.77;;;1.13;;
10491;SDS011;5293;51.464;-2.566;2022-08-05T06:11:23;1.53;;;1.00;;
10491;SDS011;5293;51.464;-2.566;2022-08-05T06:13:51;3.77;;;1.30;;
10491;SDS011;5293;51.464;-2.566;2022-08-05T06:16:17;2.93;;;1.70;;
10491;SDS011;5293;51.464;-2.566;2022-08-05T06:18:43;10.70;;;2.90;;
10491;SDS011;5293;51.464;-2.566;2022-08-05T06:21:08;4.90;;;2.57;;
10491;SDS011;5293;51.464;-2.566;2022-08-05T06:23:34;7.57;;;2.50;;
10491;SDS011;5293;51.464;-2.566;2022-08-05T06:25:59;6.43;;;2.43;;
10491;SDS011;5293;51.464;-2.566;2022-08-05T06:28:25;5.20;;;2.17;;
10491;SDS011;5293;51.464;-2.566;2022-08-05T06:30:51;5.60;;;2.50;;
10491;SDS011;5293;51.464;-2.566;2022-08-05T06:33:17;1.43;;;1.07;;
10491;SDS011;5293;51.464;-2.566;2022-08-05T06:35:43;4.27;;;1.47;;
10491;SDS011;5293;51.464;-2.566;2022-08-05T06:38:08;3.97;;;1.10;;
10491;SDS011;5293;51.464;-2.566;2022-08-05T06:40:34;4.33;;;1.20;;
10491;SDS011;5293;51.464;-2.566;2022-08-05T06:43:00;4.67;;;1.20;;
10491;SDS011;5293;51.464;-2.566;2022-08-05T06:45:26;5.60;;;1.17;;
10491;SDS011;5293;51.464;-2.566;2022-08-05T06:47:52;3.27;;;1.00;;
10491;SDS011;5293;51.464;-2.566;2022-08-05T06:50:18;2.03;;;1.00;;
10491;SDS011;5293;51.464;-2.566;2022-08-05T06:52:44;4.70;;;1.10;;
10491;SDS011;5293;51.464;-2.566;2022-08-05T06:55:10;3.13;;;1.00;;
10491;SDS011;5293;51.464;-2.566;2022-08-05T06:57:36;3.10;;;0.80;;
10491;SDS011;5293;51.464;-2.566;2022-08-05T07:00:02;4.47;;;1.10;;
10491;SDS011;5293;51.464;-2.566;2022-08-05T07:02:28;1.03;;;1.00;;
10491;SDS011;5293;51.464;-2.566;2022-08-05T07:04:54;3.30;;;1.27;;
10491;SDS011;5293;51.464;-2.566;2022-08-05T07:07:20;2.37;;;0.80;;
10491;SDS011;5293;51.464;-2.566;2022-08-05T07:09:45;5.00;;;0.93;;
10491;SDS011;5293;51.464;-2.566;2022-08-05T07:12:11;2.73;;;1.27;;
10491;SDS011;5293;51.464;-2.566;2022-08-05T07:14:57;2.83;;;1.00;;
10491;SDS011;5293;51.464;-2.566;2022-08-05T07:17:42;2.40;;;1.00;;
10491;SDS011;5293;51.464;-2.566;2022-08-05T07:20:08;3.63;;;1.00;;
10491;SDS011;5293;51.464;-2.566;2022-08-05T07:22:34;3.10;;;0.97;;
10491;SDS011;5293;51.464;-2.566;2022-08-05T07:25:00;9.00;;;1.10;;
10491;SDS011;5293;51.464;-2.566;2022-08-05T07:27:26;5.77;;;1.20;;
10491;SDS011;5293;51.464;-2.566;2022-08-05T07:29:52;5.93;;;1.30;;
10491;SDS011;5293;51.464;-2.566;2022-08-05T07:32:17;3.43;;;0.83;;
10491;SDS011;5293;51.464;-2.566;2022-08-05T07:34:43;4.97;;;0.80;;
10491;SDS011;5293;51.464;-2.566;2022-08-05T07:37:09;2.93;;;1.30;;
10491;SDS011;5293;51.464;-2.566;2022-08-05T07:39:34;5.43;;;1.00;;
10491;SDS011;5293;51.464;-2.566;2022-08-05T07:42:00;2.60;;;1.00;;
10491;SDS011;5293;51.464;-2.566;2022-08-05T07:44:26;3.10;;;1.20;;
10491;SDS011;5293;51.464;-2.566;2022-08-05T07:46:52;6.00;;;0.90;;
10491;SDS011;5293;51.464;-2.566;2022-08-05T07:49:17;6.83;;;1.10;;
10491;SDS011;5293;51.464;-2.566;2022-08-05T07:51:44;4.23;;;1.27;;
10491;SDS011;5293;51.464;-2.566;2022-08-05T07:54:10;3.50;;;1.03;;
10491;SDS011;5293;51.464;-2.566;2022-08-05T07:56:36;2.47;;;1.00;;
10491;SDS011;5293;51.464;-2.566;2022-08-05T07:59:02;1.73;;;1.00;;
10491;SDS011;5293;51.464;-2.566;2022-08-05T08:01:28;5.70;;;1.47;;
10491;SDS011;5293;51.464;-2.566;2022-08-05T08:03:54;3.87;;;1.00;;
10491;SDS011;5293;51.464;-2.566;2022-08-05T08:06:20;3.57;;;1.00;;
10491;SDS011;5293;51.464;-2.566;2022-08-05T08:08:46;3.30;;;1.03;;
10491;SDS011;5293;51.464;-2.566;2022-08-05T08:11:11;3.50;;;1.30;;
10491;SDS011;5293;51.464;-2.566;2022-08-05T08:13:39;4.40;;;1.10;;
10491;SDS011;5293;51.464;-2.566;2022-08-05T08:16:05;3.13;;;0.93;;
10491;SDS011;5293;51.464;-2.566;2022-08-05T08:18:31;2.67;;;1.00;;
10491;SDS011;5293;51.464;-2.566;2022-08-05T08:20:57;3.90;;;1.07;;
10491;SDS011;5293;51.464;-2.566;2022-08-05T08:23:23;3.85;;;0.95;;
10491;SDS011;5293;51.464;-2.566;2022-08-05T08:25:49;4.13;;;0.83;;
10491;SDS011;5293;51.464;-2.566;2022-08-05T08:28:15;1.87;;;0.70;;
10491;SDS011;5293;51.464;-2.566;2022-08-05T08:30:41;2.37;;;0.90;;
10491;SDS011;5293;51.464;-2.566;2022-08-05T08:33:10;1.73;;;1.10;;
10491;SDS011;5293;51.464;-2.566;2022-08-05T08:35:36;2.80;;;1.07;;
10491;SDS011;5293;51.464;-2.566;2022-08-05T08:38:02;1.70;;;0.93;;
10491;SDS011;5293;51.464;-2.566;2022-08-05T08:40:31;3.80;;;0.90;;
10491;SDS011;5293;51.464;-2.566;2022-08-05T08:42:58;1.27;;;0.70;;
10491;SDS011;5293;51.464;-2.566;2022-08-05T08:45:24;5.77;;;1.20;;
10491;SDS011;5293;51.464;-2.566;2022-08-05T08:47:50;4.13;;;1.03;;
10491;SDS011;5293;51.464;-2.566;2022-08-05T08:50:18;0.80;;;0.80;;
10491;SDS011;5293;51.464;-2.566;2022-08-05T08:52:53;3.90;;;1.23;;
10491;SDS011;5293;51.464;-2.566;2022-08-05T08:55:25;3.95;;;1.40;;
10491;SDS011;5293;51.464;-2.566;2022-08-05T08:57:50;1.77;;;0.90;;
10491;SDS011;5293;51.464;-2.566;2022-08-05T09:00:16;1.47;;;0.90;;
10491;SDS011;5293;51.464;-2.566;2022-08-05T09:02:43;3.07;;;0.87;;
10491;SDS011;5293;51.464;-2.566;2022-08-05T09:05:10;6.43;;;0.80;;
10491;SDS011;5293;51.464;-2.566;2022-08-05T09:07:36;2.10;;;1.03;;
10491;SDS011;5293;51.464;-2.566;2022-08-05T09:10:02;2.77;;;0.93;;
10491;SDS011;5293;51.464;-2.566;2022-08-05T09:12:28;2.30;;;1.00;;
10491;SDS011;5293;51.464;-2.566;2022-08-05T09:14:54;2.27;;;0.80;;
10491;SDS011;5293;51.464;-2.566;2022-08-05T09:17:20;3.90;;;1.20;;
10491;SDS011;5293;51.464;-2.566;2022-08-05T09:19:46;4.13;;;0.73;;
10491;SDS011;5293;51.464;-2.566;2022-08-05T09:22:12;5.17;;;1.20;;
10491;SDS011;5293;51.464;-2.566;2022-08-05T09:24:37;3.43;;;1.00;;
10491;SDS011;5293;51.464;-2.566;2022-08-05T09:27:06;2.43;;;1.00;;
10491;SDS011;5293;51.464;-2.566;2022-08-05T09:29:40;2.30;;;1.10;;
10491;SDS011;5293;51.464;-2.566;2022-08-05T09:32:10;3.75;;;1.05;;
10491;SDS011;5293;51.464;-2.566;2022-08-05T09:34:49;3.33;;;1.10;;
10491;SDS011;5293;51.464;-2.566;2022-08-05T09:37:17;2.03;;;1.00;;
10491;SDS011;5293;51.464;-2.566;2022-08-05T09:39:47;3.13;;;0.80;;
10491;SDS011;5293;51.464;-2.566;2022-08-05T09:42:13;3.83;;;1.00;;
10491;SDS011;5293;51.464;-2.566;2022-08-05T09:44:44;1.60;;;0.80;;
10491;SDS011;5293;51.464;-2.566;2022-08-05T09:49:47;1.87;;;0.60;;
10491;SDS011;5293;51.464;-2.566;2022-08-05T09:52:22;3.13;;;1.07;;
10491;SDS011;5293;51.464;-2.566;2022-08-05T09:54:50;2.63;;;1.17;;
10491;SDS011;5293;51.464;-2.566;2022-08-05T10:00:03;3.57;;;0.80;;
10491;SDS011;5293;51.464;-2.566;2022-08-05T10:02:34;2.40;;;1.00;;
10491;SDS011;5293;51.464;-2.566;2022-08-05T10:05:05;3.27;;;1.20;;
10491;SDS011;5293;51.464;-2.566;2022-08-05T10:07:48;2.80;;;0.93;;
10491;SDS011;5293;51.464;-2.566;2022-08-05T10:10:20;4.17;;;0.80;;
10491;SDS011;5293;51.464;-2.566;2022-08-05T10:12:53;2.93;;;1.10;;
10491;SDS011;5293;51.464;-2.566;2022-08-05T10:15:31;0.93;;;0.77;;
10491;SDS011;5293;51.464;-2.566;2022-08-05T10:20:29;2.37;;;1.03;;
10491;SDS011;5293;51.464;-2.566;2022-08-05T10:22:56;1.70;;;0.70;;
10491;SDS011;5293;51.464;-2.566;2022-08-05T10:25:23;1.40;;;0.50;;
10491;SDS011;5293;51.464;-2.566;2022-08-05T10:27:49;1.73;;;0.70;;
10491;SDS011;5293;51.464;-2.566;2022-08-05T10:30:16;3.30;;;1.10;;
10491;SDS011;5293;51.464;-2.566;2022-08-05T10:32:42;1.50;;;0.83;;
10491;SDS011;5293;51.464;-2.566;2022-08-05T10:35:09;3.23;;;1.50;;
10491;SDS011;5293;51.464;-2.566;2022-08-05T10:37:35;2.77;;;1.07;;
10491;SDS011;5293;51.464;-2.566;2022-08-05T10:40:02;3.77;;;1.10;;
10491;SDS011;5293;51.464;-2.566;2022-08-05T10:42:31;2.73;;;0.73;;
10491;SDS011;5293;51.464;-2.566;2022-08-05T10:45:01;2.40;;;0.80;;
10491;SDS011;5293;51.464;-2.566;2022-08-05T10:47:30;3.07;;;0.80;;
10491;SDS011;5293;51.464;-2.566;2022-08-05T10:50:03;1.53;;;1.00;;
10491;SDS011;5293;51.464;-2.566;2022-08-05T10:52:36;3.93;;;1.00;;
10491;SDS011;5293;51.464;-2.566;2022-08-05T10:55:08;4.87;;;1.77;;
10491;SDS011;5293;51.464;-2.566;2022-08-05T10:57:36;2.27;;;0.90;;
10491;SDS011;5293;51.464;-2.566;2022-08-05T11:00:20;3.40;;;1.10;;
10491;SDS011;5293;51.464;-2.566;2022-08-05T11:05:28;2.77;;;0.93;;
10491;SDS011;5293;51.464;-2.566;2022-08-05T11:08:04;4.73;;;1.10;;
10491;SDS011;5293;51.464;-2.566;2022-08-05T11:10:34;1.63;;;0.70;;
10491;SDS011;5293;51.464;-2.566;2022-08-05T11:13:02;2.97;;;1.13;;
10491;SDS011;5293;51.464;-2.566;2022-08-05T11:15:30;2.30;;;0.87;;
10491;SDS011;5293;51.464;-2.566;2022-08-05T11:20:48;1.03;;;0.73;;
10491;SDS011;5293;51.464;-2.566;2022-08-05T11:33:31;2.50;;;0.67;;
10491;SDS011;5293;51.464;-2.566;2022-08-05T11:36:10;1.17;;;0.70;;
10491;SDS011;5293;51.464;-2.566;2022-08-05T11:41:07;2.83;;;1.07;;
10491;SDS011;5293;51.464;-2.566;2022-08-05T11:43:33;1.73;;;1.10;;
10491;SDS011;5293;51.464;-2.566;2022-08-05T11:46:00;1.30;;;0.70;;
10491;SDS011;5293;51.464;-2.566;2022-08-05T11:48:26;2.37;;;1.20;;
10491;SDS011;5293;51.464;-2.566;2022-08-05T11:50:52;2.10;;;1.23;;
10491;SDS011;5293;51.464;-2.566;2022-08-05T11:53:19;3.53;;;1.03;;
10491;SDS011;5293;51.464;-2.566;2022-08-05T11:55:55;2.40;;;1.20;;
10491;SDS011;5293;51.464;-2.566;2022-08-05T11:58:29;3.57;;;0.90;;
10491;SDS011;5293;51.464;-2.566;2022-08-05T12:03:41;1.83;;;0.90;;
10491;SDS011;5293;51.464;-2.566;2022-08-05T12:06:13;1.27;;;0.60;;
10491;SDS011;5293;51.464;-2.566;2022-08-05T12:08:42;1.20;;;0.60;;
10491;SDS011;5293;51.464;-2.566;2022-08-05T12:11:12;7.33;;;1.30;;
10491;SDS011;5293;51.464;-2.566;2022-08-05T12:13:59;3.40;;;0.83;;
10491;SDS011;5293;51.464;-2.566;2022-08-05T12:16:27;2.10;;;0.77;;
10491;SDS011;5293;51.464;-2.566;2022-08-05T12:18:56;3.53;;;0.63;;
10491;SDS011;5293;51.464;-2.566;2022-08-05T12:21:23;2.33;;;0.87;;
10491;SDS011;5293;51.464;-2.566;2022-08-05T12:27:09;3.70;;;0.93;;
10491;SDS011;5293;51.464;-2.566;2022-08-05T12:29:17;1.90;;;0.90;;
10491;SDS011;5293;51.464;-2.566;2022-08-05T12:34:17;3.07;;;0.70;;
10491;SDS011;5293;51.464;-2.566;2022-08-05T12:36:44;1.43;;;0.67;;
10491;SDS011;5293;51.464;-2.566;2022-08-05T12:39:11;2.77;;;0.97;;
10491;SDS011;5293;51.464;-2.566;2022-08-05T12:41:38;0.97;;;0.60;;
10491;SDS011;5293;51.464;-2.566;2022-08-05T12:44:06;2.30;;;0.67;;
10491;SDS011;5293;51.464;-2.566;2022-08-05T12:46:34;1.57;;;0.50;;
10491;SDS011;5293;51.464;-2.566;2022-08-05T12:54:20;2.87;;;0.60;;
10491;SDS011;5293;51.464;-2.566;2022-08-05T12:56:57;2.67;;;0.63;;
10491;SDS011;5293;51.464;-2.566;2022-08-05T13:01:53;2.47;;;0.80;;
10491;SDS011;5293;51.464;-2.566;2022-08-05T13:04:31;2.07;;;0.80;;
10491;SDS011;5293;51.464;-2.566;2022-08-05T13:06:59;2.17;;;0.57;;
10491;SDS011;5293;51.464;-2.566;2022-08-05T13:09:26;3.27;;;0.80;;
10491;SDS011;5293;51.464;-2.566;2022-08-05T13:12:06;4.37;;;0.80;;
10491;SDS011;5293;51.464;-2.566;2022-08-05T13:14:41;6.50;;;1.20;;
10491;SDS011;5293;51.464;-2.566;2022-08-05T13:17:14;1.17;;;0.87;;
10491;SDS011;5293;51.464;-2.566;2022-08-05T13:20:07;3.20;;;1.30;;
10491;SDS011;5293;51.464;-2.566;2022-08-05T13:22:36;5.20;;;1.00;;
10491;SDS011;5293;51.464;-2.566;2022-08-05T13:25:08;2.43;;;1.00;;
10491;SDS011;5293;51.464;-2.566;2022-08-05T13:27:37;6.57;;;0.90;;
10491;SDS011;5293;51.464;-2.566;2022-08-05T13:30:14;0.77;;;0.60;;
10491;SDS011;5293;51.464;-2.566;2022-08-05T13:32:42;1.43;;;0.60;;
10491;SDS011;5293;51.464;-2.566;2022-08-05T13:35:15;1.43;;;1.03;;
10491;SDS011;5293;51.464;-2.566;2022-08-05T13:37:42;3.07;;;0.70;;
10491;SDS011;5293;51.464;-2.566;2022-08-05T13:40:08;0.80;;;0.53;;
10491;SDS011;5293;51.464;-2.566;2022-08-05T13:42:35;3.73;;;0.80;;
10491;SDS011;5293;51.464;-2.566;2022-08-05T13:45:00;1.83;;;0.70;;
10491;SDS011;5293;51.464;-2.566;2022-08-05T13:47:26;1.83;;;1.10;;
10491;SDS011;5293;51.464;-2.566;2022-08-05T13:49:52;3.10;;;0.77;;
10491;SDS011;5293;51.464;-2.566;2022-08-05T13:52:19;2.27;;;0.57;;
10491;SDS011;5293;51.464;-2.566;2022-08-05T13:54:46;1.03;;;0.60;;
10491;SDS011;5293;51.464;-2.566;2022-08-05T13:57:12;1.50;;;0.63;;
10491;SDS011;5293;51.464;-2.566;2022-08-05T13:59:39;3.13;;;0.93;;
10491;SDS011;5293;51.464;-2.566;2022-08-05T14:02:06;9.65;;;1.88;;
10491;SDS011;5293;51.464;-2.566;2022-08-05T14:04:34;3.28;;;1.00;;
10491;SDS011;5293;51.464;-2.566;2022-08-05T14:07:39;3.43;;;1.03;;
10491;SDS011;5293;51.464;-2.566;2022-08-05T14:10:07;3.70;;;1.17;;
10491;SDS011;5293;51.464;-2.566;2022-08-05T14:12:33;5.57;;;1.10;;
10491;SDS011;5293;51.464;-2.566;2022-08-05T14:14:59;1.83;;;1.00;;
10491;SDS011;5293;51.464;-2.566;2022-08-05T14:17:25;1.53;;;0.93;;
10491;SDS011;5293;51.464;-2.566;2022-08-05T14:19:51;2.30;;;1.10;;
10491;SDS011;5293;51.464;-2.566;2022-08-05T14:22:18;1.77;;;0.87;;
10491;SDS011;5293;51.464;-2.566;2022-08-05T14:24:45;0.80;;;0.80;;
10491;SDS011;5293;51.464;-2.566;2022-08-05T14:27:11;11.57;;;1.20;;
10491;SDS011;5293;51.464;-2.566;2022-08-05T14:29:37;0.90;;;0.80;;
10491;SDS011;5293;51.464;-2.566;2022-08-05T14:32:03;1.37;;;0.80;;
10491;SDS011;5293;51.464;-2.566;2022-08-05T14:34:29;1.93;;;0.97;;
10491;SDS011;5293;51.464;-2.566;2022-08-05T14:36:55;3.23;;;1.00;;
10491;SDS011;5293;51.464;-2.566;2022-08-05T14:39:21;1.30;;;0.60;;
10491;SDS011;5293;51.464;-2.566;2022-08-05T14:41:47;4.73;;;1.20;;
10491;SDS011;5293;51.464;-2.566;2022-08-05T14:44:13;0.73;;;0.73;;
10491;SDS011;5293;51.464;-2.566;2022-08-05T14:46:38;2.00;;;1.00;;
10491;SDS011;5293;51.464;-2.566;2022-08-05T14:49:04;1.33;;;0.70;;
10491;SDS011;5293;51.464;-2.566;2022-08-05T14:51:30;0.63;;;0.50;;
10491;SDS011;5293;51.464;-2.566;2022-08-05T14:53:57;0.70;;;0.50;;
10491;SDS011;5293;51.464;-2.566;2022-08-05T14:56:23;1.47;;;0.80;;
10491;SDS011;5293;51.464;-2.566;2022-08-05T14:58:49;2.87;;;0.90;;
10491;SDS011;5293;51.464;-2.566;2022-08-05T15:01:16;3.92;;;1.10;;
10491;SDS011;5293;51.464;-2.566;2022-08-05T15:03:43;0.83;;;0.80;;
10491;SDS011;5293;51.464;-2.566;2022-08-05T15:06:09;1.40;;;0.53;;
10491;SDS011;5293;51.464;-2.566;2022-08-05T15:08:35;0.50;;;0.50;;
10491;SDS011;5293;51.464;-2.566;2022-08-05T15:11:00;0.43;;;0.43;;
10491;SDS011;5293;51.464;-2.566;2022-08-05T15:13:26;2.30;;;0.53;;
10491;SDS011;5293;51.464;-2.566;2022-08-05T15:15:52;2.87;;;0.50;;
10491;SDS011;5293;51.464;-2.566;2022-08-05T15:18:18;1.90;;;0.70;;
10491;SDS011;5293;51.464;-2.566;2022-08-05T15:20:44;0.43;;;0.43;;
10491;SDS011;5293;51.464;-2.566;2022-08-05T15:23:10;1.27;;;0.57;;
10491;SDS011;5293;51.464;-2.566;2022-08-05T15:25:37;0.43;;;0.40;;
10491;SDS011;5293;51.464;-2.566;2022-08-05T15:28:06;1.87;;;0.93;;
10491;SDS011;5293;51.464;-2.566;2022-08-05T15:30:32;1.60;;;0.50;;
10491;SDS011;5293;51.464;-2.566;2022-08-05T15:33:00;1.33;;;0.60;;
10491;SDS011;5293;51.464;-2.566;2022-08-05T15:35:26;1.77;;;0.80;;
10491;SDS011;5293;51.464;-2.566;2022-08-05T15:37:52;1.20;;;0.80;;
10491;SDS011;5293;51.464;-2.566;2022-08-05T15:40:19;1.07;;;0.50;;
10491;SDS011;5293;51.464;-2.566;2022-08-05T15:42:45;1.70;;;0.60;;